Terminal Aerodrome Forecast
Issued by NWS Cleveland, OH

Home | Current Version | Previous Version | Graphics & Text | Print | Product List | Glossary Off
Versions: 1 2 3 4 5 6 7 8 9 10 11 12 13 14 15 16

000
FTUS41 KCLE 242324
TAFERI
TAF
KERI 242324Z 2500/2524 25010KT P6SM SCT060 OVC080
     FM250500 31005KT P6SM VCSH BKN030 OVC060
     FM250900 VRB03KT P6SM SCT007 OVC012
     FM251100 04008KT P6SM OVC007
     FM252100 05009KT P6SM OVC025=

USA.gov is the U.S. government's official web portal to all federal, state and local government web resources and services.